METAR Data
IDs: Format: Raw Decoded Include TAF

Data at: 2253 UTC 23 Oct 2019

METAR for:UUBW (Moscow/Ramenskoye Ar, --, RA)
Text:UUBW 232230Z 23002MPS 9999 BKN032 12/06 Q1018 R30/010060 NOSIG
Temperature: 12.0°C ( 54°F)
Dewpoint: 6.0°C ( 43°F) [RH = 67%]
Pressure (altimeter):30.06 inches Hg (1018.0 mb)
Winds:from the SW (230 degrees) at 5 MPH (4 knots; 2.1 m/s)
Visibility:6 or more sm (10+ km)
Ceiling:3200 feet AGL
Clouds: broken clouds at 3200 feet AGL